Ellisburg, Pennsylvania
Current Conditions -  °F | °C
As of 6:56 PM on Saturday 20 Dec 2014 (Local Time) from KELZ Reporting Station
Overcast Overcast  
Wind Chill: 24°   Ceiling: 1200
Heat Index: 24°   Visibility: 10mi
Dew Point: 18°   Wind: 3mph
Humidity: 77%   Direction: 260°W
Pressure: 30.2"   Gusts: NA
Location:  41.915°N, 77.8855°W
Report Text: KELZ 202356Z AUTO 26003KT 10SM OVC012 M04/M08 A3020 RMK AO2 SLP258 T10441078 11039 21044 51010
Loading
Personal Weather Stations






























Interactive Weather Map New forecast layout! Learn more

10-Day Weather Forecast

Advertisements
Track Severe Weather on mobile